QFA55 PAVD-PAFA
Flight info
| Callsign | QFA55 |
|---|---|
| Flight time | 0h 48m |
| Altitude | 29000 |
| Route | GKN J167 BIG HRDNG |
| Aircraft | B738/M-SDE2E3FGHIRWXY/LB1 |
Departure
| Time | 2026-04-25 11:47 |
|---|---|
| Airport | Valdez Pioneer Field (PAVD) |
Arrival
| Time | 2026-04-25 12:35 |
|---|---|
| Airport | Fairbanks International Airport (PAFA) |
| Time | Latitude | Longitude | Altitude | Speed | Heading |
|---|---|---|---|---|---|
| 2026-04-25 11:45 | 61.13553 | -146.22748 | 83 ft | 0 kts | 257° |
| 2026-04-25 11:45 | 61.13553 | -146.22751 | 83 ft | 0 kts | 257° |
| 2026-04-25 11:45 | 61.13552 | -146.22766 | 83 ft | 2 kts | 259° |
| 2026-04-25 11:45 | 61.13551 | -146.22772 | 83 ft | 0 kts | 261° |
| 2026-04-25 11:46 | 61.13550 | -146.22792 | 83 ft | 11 kts | 261° |
| 2026-04-25 11:46 | 61.13500 | -146.23468 | 84 ft | 85 kts | 261° |
| 2026-04-25 11:46 | 61.13375 | -146.25153 | 84 ft | 149 kts | 261° |
| 2026-04-25 11:46 | 61.13198 | -146.27471 | 511 ft | 166 kts | 257° |
| 2026-04-25 11:47 | 61.12910 | -146.29800 | 1274 ft | 172 kts | 255° |
| 2026-04-25 11:47 | 61.12592 | -146.32401 | 1676 ft | 204 kts | 256° |
| 2026-04-25 11:47 | 61.12293 | -146.35459 | 2153 ft | 224 kts | 259° |
| 2026-04-25 11:47 | 61.11975 | -146.38692 | 2896 ft | 231 kts | 258° |
| 2026-04-25 11:48 | 61.11596 | -146.42011 | 3606 ft | 244 kts | 256° |
| 2026-04-25 11:48 | 61.11168 | -146.45434 | 4464 ft | 246 kts | 253° |
| 2026-04-25 11:48 | 61.10700 | -146.48867 | 5312 ft | 251 kts | 252° |
| 2026-04-25 11:48 | 61.10200 | -146.52306 | 6265 ft | 248 kts | 251° |
| 2026-04-25 11:49 | 61.09729 | -146.55886 | 6730 ft | 270 kts | 253° |
| 2026-04-25 11:49 | 61.09291 | -146.59640 | 7543 ft | 271 kts | 255° |
| 2026-04-25 11:49 | 61.08840 | -146.63548 | 8019 ft | 289 kts | 254° |
| 2026-04-25 11:49 | 61.08337 | -146.67562 | 8927 ft | 284 kts | 252° |
| 2026-04-25 11:50 | 61.07810 | -146.71446 | 9939 ft | 278 kts | 251° |
| 2026-04-25 11:50 | 61.07273 | -146.75369 | 10475 ft | 293 kts | 252° |
| 2026-04-25 11:50 | 61.06763 | -146.79560 | 10934 ft | 306 kts | 260° |
| 2026-04-25 11:50 | 61.06905 | -146.83977 | 11686 ft | 315 kts | 283° |
| 2026-04-25 11:51 | 61.08025 | -146.87903 | 12442 ft | 326 kts | 312° |
| 2026-04-25 11:51 | 61.09985 | -146.90370 | 13113 ft | 340 kts | 340° |
| 2026-04-25 11:51 | 61.12363 | -146.90743 | 13670 ft | 351 kts | 9° |
| 2026-04-25 11:51 | 61.14638 | -146.88848 | 14204 ft | 358 kts | 36° |
| 2026-04-25 11:52 | 61.16562 | -146.85451 | 14863 ft | 361 kts | 46° |
| 2026-04-25 11:52 | 61.18426 | -146.81920 | 15585 ft | 365 kts | 40° |
| 2026-04-25 11:52 | 61.20506 | -146.78818 | 16254 ft | 371 kts | 36° |
| 2026-04-25 11:52 | 61.22694 | -146.75908 | 16907 ft | 376 kts | 34° |
| 2026-04-25 11:53 | 61.24940 | -146.73029 | 17543 ft | 382 kts | 35° |
| 2026-04-25 11:53 | 61.27191 | -146.70056 | 18183 ft | 386 kts | 36° |
| 2026-04-25 11:53 | 61.29444 | -146.66951 | 18809 ft | 391 kts | 37° |
| 2026-04-25 11:53 | 61.31714 | -146.63761 | 19404 ft | 397 kts | 38° |
| 2026-04-25 11:54 | 61.34022 | -146.60536 | 20008 ft | 402 kts | 38° |
| 2026-04-25 11:54 | 61.36373 | -146.57290 | 20592 ft | 408 kts | 37° |
| 2026-04-25 11:54 | 61.41184 | -146.50679 | 21681 ft | 420 kts | 38° |
| 2026-04-25 11:55 | 61.43629 | -146.47288 | 22228 ft | 425 kts | 38° |
| 2026-04-25 11:55 | 61.46107 | -146.43835 | 22747 ft | 430 kts | 38° |
| 2026-04-25 11:55 | 61.48610 | -146.40339 | 23258 ft | 435 kts | 39° |
| 2026-04-25 11:55 | 61.51153 | -146.36786 | 23584 ft | 446 kts | 39° |
| 2026-04-25 11:56 | 61.53776 | -146.33112 | 23795 ft | 459 kts | 39° |
| 2026-04-25 11:56 | 61.56443 | -146.29379 | 24240 ft | 464 kts | 39° |
| 2026-04-25 11:56 | 61.59136 | -146.25609 | 24785 ft | 466 kts | 39° |
| 2026-04-25 11:56 | 61.61832 | -146.21824 | 25342 ft | 467 kts | 39° |
| 2026-04-25 11:57 | 61.64537 | -146.18010 | 25906 ft | 468 kts | 39° |
| 2026-04-25 11:57 | 61.66359 | -146.15432 | 26284 ft | 468 kts | 39° |
| 2026-04-25 11:57 | 61.69068 | -146.11594 | 26834 ft | 469 kts | 39° |
| 2026-04-25 11:57 | 61.72653 | -146.06505 | 27536 ft | 469 kts | 39° |
| 2026-04-25 11:58 | 61.74479 | -146.03910 | 27885 ft | 469 kts | 39° |
| 2026-04-25 11:58 | 61.77190 | -146.00050 | 28385 ft | 470 kts | 39° |
| 2026-04-25 11:58 | 61.79898 | -145.96184 | 28870 ft | 470 kts | 39° |
| 2026-04-25 11:58 | 61.82611 | -145.92301 | 29193 ft | 473 kts | 39° |
| 2026-04-25 11:59 | 61.85345 | -145.88376 | 29206 ft | 473 kts | 39° |
| 2026-04-25 11:59 | 61.90748 | -145.80614 | 29208 ft | 468 kts | 39° |
| 2026-04-25 12:00 | 61.98785 | -145.68982 | 29208 ft | 464 kts | 39° |
| 2026-04-25 12:01 | 62.06795 | -145.57317 | 29202 ft | 466 kts | 39° |
| 2026-04-25 12:01 | 62.12205 | -145.49718 | 29210 ft | 468 kts | 31° |
| 2026-04-25 12:01 | 62.15235 | -145.47042 | 29211 ft | 474 kts | 18° |
| 2026-04-25 12:02 | 62.21768 | -145.45542 | 28949 ft | 469 kts | 355° |
| 2026-04-25 12:02 | 62.24995 | -145.45946 | 28700 ft | 460 kts | 354° |
| 2026-04-25 12:02 | 62.28211 | -145.46453 | 28445 ft | 456 kts | 353° |
| 2026-04-25 12:03 | 62.31382 | -145.46966 | 28192 ft | 458 kts | 354° |
| 2026-04-25 12:03 | 62.34577 | -145.47435 | 28214 ft | 463 kts | 354° |
| 2026-04-25 12:03 | 62.41023 | -145.48277 | 28201 ft | 463 kts | 355° |
| 2026-04-25 12:04 | 62.47454 | -145.49171 | 28197 ft | 463 kts | 354° |
| 2026-04-25 12:04 | 62.53882 | -145.50094 | 28179 ft | 463 kts | 354° |
| 2026-04-25 12:05 | 62.60308 | -145.50991 | 28216 ft | 463 kts | 355° |
| 2026-04-25 12:05 | 62.66738 | -145.51899 | 28213 ft | 463 kts | 355° |
| 2026-04-25 12:06 | 62.73173 | -145.52819 | 28208 ft | 463 kts | 355° |
| 2026-04-25 12:06 | 62.79668 | -145.53748 | 28198 ft | 476 kts | 354° |
| 2026-04-25 12:07 | 62.86401 | -145.54714 | 28208 ft | 492 kts | 354° |
| 2026-04-25 12:07 | 62.93249 | -145.55698 | 28175 ft | 492 kts | 354° |
| 2026-04-25 12:08 | 63.00084 | -145.56687 | 28158 ft | 494 kts | 355° |
| 2026-04-25 12:08 | 63.06935 | -145.57688 | 28161 ft | 493 kts | 354° |
| 2026-04-25 12:09 | 63.13783 | -145.58688 | 28137 ft | 493 kts | 354° |
| 2026-04-25 12:09 | 63.20626 | -145.59692 | 28131 ft | 493 kts | 354° |
| 2026-04-25 12:10 | 63.27529 | -145.60713 | 28137 ft | 494 kts | 354° |
| 2026-04-25 12:10 | 63.34386 | -145.61729 | 28120 ft | 494 kts | 354° |
| 2026-04-25 12:11 | 63.41240 | -145.62750 | 28118 ft | 494 kts | 355° |
| 2026-04-25 12:11 | 63.48116 | -145.63780 | 28124 ft | 495 kts | 354° |
| 2026-04-25 12:12 | 63.53830 | -145.64640 | 28127 ft | 495 kts | 354° |
| 2026-04-25 12:12 | 63.61878 | -145.65858 | 28106 ft | 496 kts | 355° |
| 2026-04-25 12:13 | 63.65323 | -145.66380 | 27750 ft | 496 kts | 354° |
| 2026-04-25 12:13 | 63.68757 | -145.66901 | 27139 ft | 493 kts | 355° |
| 2026-04-25 12:13 | 63.72169 | -145.67416 | 26561 ft | 490 kts | 355° |
| 2026-04-25 12:13 | 63.75561 | -145.67925 | 26002 ft | 486 kts | 355° |
| 2026-04-25 12:14 | 63.78921 | -145.68431 | 25448 ft | 482 kts | 355° |
| 2026-04-25 12:14 | 63.82251 | -145.68936 | 24900 ft | 478 kts | 355° |
| 2026-04-25 12:14 | 63.85554 | -145.69441 | 24356 ft | 474 kts | 355° |
| 2026-04-25 12:14 | 63.88825 | -145.69941 | 23817 ft | 469 kts | 355° |
| 2026-04-25 12:15 | 63.92068 | -145.70438 | 23283 ft | 465 kts | 355° |
| 2026-04-25 12:15 | 63.95276 | -145.70929 | 22756 ft | 460 kts | 355° |
| 2026-04-25 12:15 | 63.98426 | -145.71811 | 22248 ft | 453 kts | 345° |
| 2026-04-25 12:15 | 64.01385 | -145.74021 | 21744 ft | 442 kts | 332° |
| 2026-04-25 12:16 | 64.04014 | -145.77448 | 21249 ft | 431 kts | 321° |
| 2026-04-25 12:16 | 64.06474 | -145.81306 | 20729 ft | 426 kts | 320° |
| 2026-04-25 12:16 | 64.08872 | -145.85208 | 20238 ft | 421 kts | 319° |
| 2026-04-25 12:16 | 64.11232 | -145.89110 | 19756 ft | 415 kts | 319° |
| 2026-04-25 12:17 | 64.13564 | -145.92946 | 19282 ft | 410 kts | 320° |
| 2026-04-25 12:17 | 64.15904 | -145.96747 | 18809 ft | 405 kts | 320° |
| 2026-04-25 12:17 | 64.18190 | -146.00446 | 18348 ft | 399 kts | 320° |
| 2026-04-25 12:17 | 64.20437 | -146.04098 | 17893 ft | 393 kts | 320° |
| 2026-04-25 12:18 | 64.22645 | -146.07713 | 17445 ft | 387 kts | 320° |
| 2026-04-25 12:18 | 64.24815 | -146.11289 | 17005 ft | 381 kts | 320° |
| 2026-04-25 12:18 | 64.26951 | -146.14810 | 16557 ft | 375 kts | 320° |
| 2026-04-25 12:18 | 64.29036 | -146.18345 | 16079 ft | 368 kts | 315° |
| 2026-04-25 12:19 | 64.31657 | -146.25628 | 15396 ft | 348 kts | 298° |
| 2026-04-25 12:19 | 64.33386 | -146.31830 | 14853 ft | 339 kts | 297° |
| 2026-04-25 12:19 | 64.34622 | -146.36393 | 14465 ft | 332 kts | 297° |
| 2026-04-25 12:20 | 64.35842 | -146.40936 | 14086 ft | 337 kts | 298° |
| 2026-04-25 12:20 | 64.37084 | -146.45546 | 13695 ft | 338 kts | 298° |
| 2026-04-25 12:20 | 64.38328 | -146.50119 | 13313 ft | 332 kts | 298° |
| 2026-04-25 12:20 | 64.39543 | -146.54574 | 12942 ft | 324 kts | 298° |
| 2026-04-25 12:21 | 64.40745 | -146.59012 | 12567 ft | 328 kts | 299° |
| 2026-04-25 12:21 | 64.41953 | -146.63502 | 12186 ft | 329 kts | 299° |
| 2026-04-25 12:21 | 64.43156 | -146.67980 | 11814 ft | 326 kts | 299° |
| 2026-04-25 12:21 | 64.44340 | -146.72380 | 11441 ft | 317 kts | 299° |
| 2026-04-25 12:22 | 64.45493 | -146.76674 | 11085 ft | 316 kts | 299° |
| 2026-04-25 12:22 | 64.46670 | -146.81083 | 10719 ft | 322 kts | 299° |
| 2026-04-25 12:22 | 64.47842 | -146.85476 | 10432 ft | 314 kts | 299° |
| 2026-04-25 12:22 | 64.48961 | -146.89662 | 10308 ft | 297 kts | 300° |
| 2026-04-25 12:23 | 64.50020 | -146.93632 | 10185 ft | 281 kts | 299° |
| 2026-04-25 12:23 | 64.51029 | -146.97433 | 10067 ft | 274 kts | 299° |
| 2026-04-25 12:23 | 64.52020 | -147.01180 | 9946 ft | 270 kts | 299° |
| 2026-04-25 12:23 | 64.53001 | -147.04894 | 9798 ft | 267 kts | 299° |
| 2026-04-25 12:24 | 64.53970 | -147.08563 | 9663 ft | 269 kts | 299° |
| 2026-04-25 12:24 | 64.54958 | -147.12313 | 9402 ft | 273 kts | 300° |
| 2026-04-25 12:24 | 64.55968 | -147.16149 | 9105 ft | 276 kts | 300° |
| 2026-04-25 12:24 | 64.56972 | -147.19964 | 8797 ft | 275 kts | 300° |
| 2026-04-25 12:25 | 64.57959 | -147.23717 | 8489 ft | 269 kts | 300° |
| 2026-04-25 12:25 | 64.58923 | -147.27396 | 8188 ft | 265 kts | 300° |
| 2026-04-25 12:25 | 64.59880 | -147.31067 | 7888 ft | 264 kts | 300° |
| 2026-04-25 12:25 | 64.60829 | -147.34708 | 7595 ft | 262 kts | 300° |
| 2026-04-25 12:26 | 64.61774 | -147.38331 | 7298 ft | 261 kts | 300° |
| 2026-04-25 12:26 | 64.62714 | -147.41946 | 6996 ft | 260 kts | 298° |
| 2026-04-25 12:26 | 64.63359 | -147.45832 | 6733 ft | 256 kts | 282° |
| 2026-04-25 12:26 | 64.63759 | -147.49835 | 6439 ft | 251 kts | 281° |
| 2026-04-25 12:27 | 64.64134 | -147.53758 | 6163 ft | 245 kts | 282° |
| 2026-04-25 12:27 | 64.64496 | -147.57605 | 5945 ft | 237 kts | 282° |
| 2026-04-25 12:27 | 64.64843 | -147.61282 | 5842 ft | 231 kts | 282° |
| 2026-04-25 12:27 | 64.65169 | -147.64896 | 5715 ft | 224 kts | 277° |
| 2026-04-25 12:28 | 64.65379 | -147.68528 | 5515 ft | 227 kts | 275° |
| 2026-04-25 12:28 | 64.65534 | -147.72149 | 5277 ft | 222 kts | 274° |
| 2026-04-25 12:28 | 64.65674 | -147.75714 | 5052 ft | 219 kts | 274° |
| 2026-04-25 12:28 | 64.65819 | -147.79187 | 4868 ft | 211 kts | 274° |
| 2026-04-25 12:29 | 64.65963 | -147.82525 | 4636 ft | 202 kts | 274° |
| 2026-04-25 12:29 | 64.66102 | -147.85717 | 4415 ft | 193 kts | 275° |
| 2026-04-25 12:29 | 64.66234 | -147.88769 | 4210 ft | 186 kts | 274° |
| 2026-04-25 12:29 | 64.66362 | -147.91754 | 4023 ft | 181 kts | 274° |
| 2026-04-25 12:30 | 64.66486 | -147.94641 | 3837 ft | 178 kts | 274° |
| 2026-04-25 12:30 | 64.66728 | -147.97473 | 3607 ft | 177 kts | 289° |
| 2026-04-25 12:30 | 64.67087 | -147.99221 | 3443 ft | 178 kts | 301° |
| 2026-04-25 12:30 | 64.67878 | -148.01415 | 3206 ft | 176 kts | 318° |
| 2026-04-25 12:31 | 64.68884 | -148.02929 | 2986 ft | 170 kts | 335° |
| 2026-04-25 12:31 | 64.70025 | -148.03695 | 2763 ft | 173 kts | 353° |
| 2026-04-25 12:31 | 64.71224 | -148.03655 | 2535 ft | 173 kts | 10° |
| 2026-04-25 12:31 | 64.72358 | -148.02805 | 2314 ft | 171 kts | 27° |
| 2026-04-25 12:32 | 64.73336 | -148.01270 | 2102 ft | 165 kts | 38° |
| 2026-04-25 12:32 | 64.74202 | -147.99680 | 1938 ft | 153 kts | 38° |
| 2026-04-25 12:32 | 64.75031 | -147.98172 | 1726 ft | 150 kts | 40° |
| 2026-04-25 12:32 | 64.75840 | -147.96694 | 1561 ft | 146 kts | 40° |
| 2026-04-25 12:33 | 64.76625 | -147.95221 | 1427 ft | 144 kts | 40° |
| 2026-04-25 12:33 | 64.77409 | -147.93785 | 1267 ft | 143 kts | 38° |
| 2026-04-25 12:33 | 64.78193 | -147.92342 | 1079 ft | 144 kts | 38° |
| 2026-04-25 12:33 | 64.78990 | -147.90875 | 854 ft | 147 kts | 36° |
| 2026-04-25 12:34 | 64.79801 | -147.89414 | 635 ft | 146 kts | 37° |
| 2026-04-25 12:34 | 64.80590 | -147.87974 | 448 ft | 138 kts | 36° |
| 2026-04-25 12:34 | 64.81201 | -147.86861 | 443 ft | 78 kts | 38° |
| 2026-04-25 12:34 | 64.81421 | -147.86458 | 443 ft | 54 kts | 37° |
| 2026-04-25 12:35 | 64.81599 | -147.86161 | 443 ft | 11 kts | 2° |
| 2026-04-25 12:35 | 64.81653 | -147.86275 | 443 ft | 12 kts | 284° |
| 2026-04-25 12:35 | 64.81609 | -147.86439 | 443 ft | 12 kts | 221° |
| 2026-04-25 12:35 | 64.81541 | -147.86575 | 443 ft | 14 kts | 219° |
| 2026-04-25 12:36 | 64.81501 | -147.86765 | 443 ft | 14 kts | 298° |
| 2026-04-25 12:36 | 64.81546 | -147.86874 | 443 ft | 9 kts | 329° |
| 2026-04-25 12:36 | 64.81606 | -147.86872 | 443 ft | 7 kts | 14° |
| 2026-04-25 12:36 | 64.81643 | -147.86851 | 443 ft | 2 kts | 13° |
| 2026-04-25 12:37 | 64.81645 | -147.86850 | 443 ft | 0 kts | 13° |